METAR Data
IDs: Format: Raw Decoded Include TAF

Data at: 1602 UTC 18 Feb 2019

METAR for:KMPZ (Mount Pleasant Muni, IA, US)
Text:KMPZ 181555Z AUTO 34008KT 10SM CLR M04/M07 A3039 RMK AO2
Temperature: -4.0°C ( 25°F)
Dewpoint: -7.0°C ( 19°F) [RH = 80%]
Pressure (altimeter):30.39 inches Hg (1029.2 mb)
Winds:from the NNW (340 degrees) at 9 MPH (8 knots; 4.1 m/s)
Visibility:10 or more sm (16+ km)
Ceiling:at least 12,000 feet AGL
Clouds:sky clear below 12,000 feet AGL
QC Flag:automated observation with no human augmentation